Airport View

Enter AWOS ICAO identifier for current METAR.

ex. KFNL

KCFE 212255Z 10SM SCT031 BKN039 BKN050 27/21 A2971 RMK AO2 T02650210

21 Sep 2019 23:23

Frequency: 120.45

Phone: 763-684-0762

Other Area AWOS: KMGG - KMIC - KSTC - KFCM

TAF AMD KSTC 212150Z 2122/2218 23009KT P6SM SCT025 SCT040 FM220200 25011KT P6SM FEW250 FM221400 28009KT P6SM SCT030